Time;durP1;ratioP1;P1;durP2;ratioP2;P2;SDS_P1;SDS_P2;PMS_P1;PMS_P2;Temp;Humidity;BMP_temperature;BMP_pressure;BME280_temperature;BME280_humidity;BME280_pressure;Samples;Min_cycle;Max_cycle;Signal;HPM_P1;HPM_P2
2022/10/23 00:01:58;;;;;;;;;;;14.80;92.60;;;;;;5113193;28;20043;-88
2022/10/23 00:04:26;;;;;;;;;;;14.80;92.40;;;;;;5113359;28;19946;-87
2022/10/23 00:06:52;;;;;;;;;;;14.80;92.30;;;;;;5113475;28;20324;-87
2022/10/23 00:09:19;;;;;;;;;;;14.80;92.10;;;;;;5113569;28;19951;-87
2022/10/23 00:11:49;;;;;;;;;;;14.70;92.00;;;;;;5099528;28;19947;-87
2022/10/23 00:14:15;;;;;;;;;;;14.60;92.10;;;;;;5093407;28;19941;-87
2022/10/23 00:16:41;;;;;;;;;;;14.60;92.10;;;;;;5093080;28;20033;-88
2022/10/23 00:19:08;;;;;;;;;;;14.60;92.10;;;;;;5093160;28;19984;-88
2022/10/23 00:21:33;;;;;;;;;;;14.60;92.00;;;;;;5104884;28;19947;-87
2022/10/23 00:23:59;;;;;;;;;;;14.60;92.10;;;;;;5113423;28;19938;-87
2022/10/23 00:26:24;;;;;;;;;;;14.70;92.10;;;;;;5113343;28;19955;-87
2022/10/23 00:28:51;;;;;;;;;;;14.60;92.00;;;;;;5113218;28;20216;-88
2022/10/23 00:31:18;;;;;;;;;;;14.60;92.10;;;;;;5103731;28;20428;-88
2022/10/23 00:33:44;;;;;;;;;;;14.60;92.20;;;;;;5092992;28;19945;-88
2022/10/23 00:36:11;;;;;;;;;;;14.60;92.50;;;;;;5095443;28;19939;-87
2022/10/23 00:38:37;;;;;;;;;;;14.60;92.60;;;;;;5096756;28;19937;-87
2022/10/23 00:41:03;;;;;;;;;;;14.60;92.70;;;;;;5096720;28;20443;-88
2022/10/23 00:43:30;;;;;;;;;;;14.50;92.50;;;;;;5096659;28;19941;-88
2022/10/23 00:45:56;;;;;;;;;;;14.40;92.50;;;;;;5096561;28;20020;-88
2022/10/23 00:48:21;;;;;;;;;;;14.40;92.70;;;;;;5096613;28;19992;-88
2022/10/23 00:50:48;;;;;;;;;;;14.50;92.70;;;;;;5100822;28;20028;-87
2022/10/23 00:53:14;;;;;;;;;;;14.50;92.70;;;;;;5089207;28;19949;-87
2022/10/23 00:55:44;;;;;;;;;;;14.40;92.60;;;;;;5096460;28;19936;-87
2022/10/23 00:58:10;;;;;;;;;;;14.40;92.70;;;;;;5096412;28;19963;-87
2022/10/23 01:00:55;;;;;;;;;;;14.40;92.90;;;;;;5098842;28;20394;-88
2022/10/23 01:03:22;;;;;;;;;;;14.50;93.00;;;;;;5116639;28;20385;-88
2022/10/23 01:05:49;;;;;;;;;;;14.60;92.90;;;;;;5116592;28;19961;-88
2022/10/23 01:08:30;;;;;;;;;;;14.70;92.80;;;;;;5116529;28;20487;-88
2022/10/23 01:10:59;;;;;;;;;;;14.70;92.40;;;;;;5110868;28;19949;-87
2022/10/23 01:13:34;;;;;;;;;;;14.60;92.40;;;;;;5096012;28;19949;-88
2022/10/23 01:16:22;;;;;;;;;;;14.60;92.30;;;;;;5095928;28;19935;-88
2022/10/23 01:19:06;;;;;;;;;;;14.70;92.20;;;;;;5095918;28;19938;-88
2022/10/23 01:21:31;;;;;;;;;;;14.60;92.00;;;;;;5096191;28;19946;-87
2022/10/23 01:24:05;;;;;;;;;;;14.60;92.00;;;;;;5095859;28;19945;-88
2022/10/23 01:26:43;;;;;;;;;;;14.60;92.10;;;;;;5095729;28;19984;-88
2022/10/23 01:29:18;;;;;;;;;;;14.60;92.10;;;;;;5095468;28;20020;-88
2022/10/23 01:31:47;;;;;;;;;;;14.60;92.10;;;;;;5095887;28;19943;-88
2022/10/23 01:34:14;;;;;;;;;;;14.60;92.10;;;;;;5095900;28;19938;-87
2022/10/23 01:36:41;;;;;;;;;;;14.60;92.20;;;;;;5095574;28;20336;-88
2022/10/23 01:39:09;;;;;;;;;;;14.60;91.80;;;;;;5095855;28;19943;-88
2022/10/23 01:41:42;;;;;;;;;;;14.40;91.70;;;;;;5095512;28;19947;-87
2022/10/23 01:44:11;;;;;;;;;;;14.30;91.90;;;;;;5095770;28;19949;-88
2022/10/23 01:46:37;;;;;;;;;;;14.30;92.10;;;;;;5094772;28;19999;-88
2022/10/23 01:49:05;;;;;;;;;;;14.30;92.50;;;;;;5105988;28;19942;-88
2022/10/23 01:51:32;;;;;;;;;;;14.30;92.50;;;;;;5115553;28;19953;-88
2022/10/23 01:53:58;;;;;;;;;;;14.30;92.60;;;;;;5115760;28;19944;-88
2022/10/23 01:56:29;;;;;;;;;;;14.30;92.60;;;;;;5115606;28;20389;-88
2022/10/23 01:58:57;;;;;;;;;;;14.40;92.80;;;;;;5104938;28;20053;-88
2022/10/23 02:01:24;;;;;;;;;;;14.40;92.70;;;;;;5095063;28;19939;-88
2022/10/23 02:03:51;;;;;;;;;;;14.40;92.70;;;;;;5095002;28;19943;-88
2022/10/23 02:06:16;;;;;;;;;;;14.50;92.70;;;;;;5095249;28;20417;-88
2022/10/23 02:08:42;;;;;;;;;;;14.40;92.60;;;;;;5103027;28;19944;-88
2022/10/23 02:11:15;;;;;;;;;;;14.50;92.50;;;;;;5115355;28;19942;-88
2022/10/23 02:13:41;;;;;;;;;;;14.50;92.40;;;;;;5115326;28;19946;-88
2022/10/23 02:16:11;;;;;;;;;;;14.50;92.20;;;;;;5115247;28;19976;-88
2022/10/23 02:18:42;;;;;;;;;;;14.40;92.10;;;;;;5114902;28;19969;-87
2022/10/23 02:21:10;;;;;;;;;;;14.50;91.90;;;;;;5107561;28;19951;-88
2022/10/23 02:23:39;;;;;;;;;;;14.40;91.40;;;;;;5094671;28;19979;-87
2022/10/23 02:26:13;;;;;;;;;;;14.30;91.50;;;;;;5094536;28;19962;-87
2022/10/23 02:28:42;;;;;;;;;;;14.20;91.70;;;;;;5094546;28;20108;-88
2022/10/23 02:31:09;;;;;;;;;;;14.30;92.00;;;;;;5094561;28;19944;-88
2022/10/23 02:33:34;;;;;;;;;;;14.20;92.00;;;;;;5094457;28;20311;-88
2022/10/23 02:36:00;;;;;;;;;;;14.30;92.00;;;;;;5094473;28;19939;-88
2022/10/23 02:38:28;;;;;;;;;;;14.30;92.00;;;;;;5099721;28;19989;-88
2022/10/23 02:40:56;;;;;;;;;;;14.40;92.00;;;;;;5114792;28;19941;-88
2022/10/23 02:43:29;;;;;;;;;;;14.40;92.00;;;;;;5114747;28;20013;-88
2022/10/23 02:46:07;;;;;;;;;;;14.40;92.00;;;;;;5114613;28;19961;-88
2022/10/23 02:48:40;;;;;;;;;;;14.40;91.80;;;;;;5107908;28;19947;-88
2022/10/23 02:51:13;;;;;;;;;;;14.40;91.50;;;;;;5109691;28;20002;-88
2022/10/23 02:53:58;;;;;;;;;;;14.40;91.30;;;;;;5094329;28;19993;-88
2022/10/23 02:56:26;;;;;;;;;;;14.40;91.40;;;;;;5094106;28;19941;-88
2022/10/23 02:59:01;;;;;;;;;;;14.40;91.80;;;;;;5102106;28;19938;-87
2022/10/23 03:01:32;;;;;;;;;;;14.30;91.80;;;;;;5114355;28;19933;-88
2022/10/23 03:03:59;;;;;;;;;;;14.10;91.90;;;;;;5114295;28;19942;-87
2022/10/23 03:06:25;;;;;;;;;;;14.00;92.40;;;;;;5114131;28;19968;-87
2022/10/23 03:08:50;;;;;;;;;;;14.10;92.70;;;;;;5113408;28;19941;-88
2022/10/23 03:11:16;;;;;;;;;;;14.10;92.90;;;;;;5114152;28;19937;-87
2022/10/23 03:13:42;;;;;;;;;;;14.10;93.00;;;;;;5114155;28;19940;-87
2022/10/23 03:16:07;;;;;;;;;;;14.30;93.00;;;;;;5114083;28;20385;-88
2022/10/23 03:18:33;;;;;;;;;;;14.30;92.90;;;;;;5108187;28;19951;-87
2022/10/23 03:20:59;;;;;;;;;;;14.40;92.80;;;;;;5093637;28;19938;-87
2022/10/23 03:23:24;;;;;;;;;;;14.30;92.60;;;;;;5093678;28;19938;-88
2022/10/23 03:25:50;;;;;;;;;;;14.30;92.50;;;;;;5093555;28;19956;-88
2022/10/23 03:28:16;;;;;;;;;;;14.20;92.80;;;;;;5096236;28;20006;-88
2022/10/23 03:30:41;;;;;;;;;;;14.30;93.00;;;;;;5113851;28;19994;-87
2022/10/23 03:33:07;;;;;;;;;;;14.40;92.90;;;;;;5113930;28;20262;-88
2022/10/23 03:35:33;;;;;;;;;;;14.40;92.80;;;;;;5114112;28;19942;-88
2022/10/23 03:37:58;;;;;;;;;;;14.50;92.70;;;;;;5113526;28;19945;-87
2022/10/23 03:40:24;;;;;;;;;;;14.40;92.60;;;;;;5113516;28;20516;-87
2022/10/23 03:42:49;;;;;;;;;;;14.30;92.50;;;;;;5114042;28;20401;-88
2022/10/23 03:45:15;;;;;;;;;;;14.30;92.80;;;;;;5113882;28;19960;-88
2022/10/23 03:47:40;;;;;;;;;;;14.30;92.80;;;;;;5113673;28;19937;-88
2022/10/23 03:50:07;;;;;;;;;;;14.30;92.90;;;;;;5095469;28;20038;-88
2022/10/23 03:52:32;;;;;;;;;;;14.30;92.90;;;;;;5093016;28;20321;-88
2022/10/23 03:54:58;;;;;;;;;;;14.40;92.80;;;;;;5093237;28;19939;-87
2022/10/23 03:57:24;;;;;;;;;;;14.40;92.60;;;;;;5093274;28;19941;-87
2022/10/23 03:59:49;;;;;;;;;;;14.30;92.40;;;;;;5093404;28;19955;-87
2022/10/23 04:02:15;;;;;;;;;;;14.20;92.30;;;;;;5093452;28;20291;-87
2022/10/23 04:04:40;;;;;;;;;;;14.10;92.70;;;;;;5093150;28;20396;-88
2022/10/23 04:07:06;;;;;;;;;;;14.10;92.90;;;;;;5093070;28;19963;-87
2022/10/23 04:09:31;;;;;;;;;;;14.10;93.00;;;;;;5093075;28;19954;-88
2022/10/23 04:11:57;;;;;;;;;;;14.10;93.30;;;;;;5097087;28;19944;-87
2022/10/23 04:14:22;;;;;;;;;;;14.20;93.20;;;;;;5097189;28;19939;-87
2022/10/23 04:16:48;;;;;;;;;;;14.30;93.00;;;;;;5097162;28;19944;-88
2022/10/23 04:19:15;;;;;;;;;;;14.30;92.90;;;;;;5097568;28;19945;-88
2022/10/23 04:21:41;;;;;;;;;;;14.30;92.90;;;;;;5096876;28;19943;-87
2022/10/23 04:24:07;;;;;;;;;;;14.30;93.00;;;;;;5096996;28;19946;-88
2022/10/23 04:26:33;;;;;;;;;;;14.30;92.90;;;;;;5096860;28;20085;-87
2022/10/23 04:28:58;;;;;;;;;;;14.10;92.70;;;;;;5104903;28;20071;-87
2022/10/23 04:31:24;;;;;;;;;;;14.00;92.70;;;;;;5117268;28;20052;-87
2022/10/23 04:33:49;;;;;;;;;;;13.90;93.20;;;;;;5117196;28;20311;-87
2022/10/23 04:36:15;;;;;;;;;;;13.90;93.60;;;;;;5117177;28;20029;-88
2022/10/23 04:38:40;;;;;;;;;;;14.00;93.70;;;;;;5116324;28;19943;-87
2022/10/23 04:41:06;;;;;;;;;;;14.10;94.00;;;;;;5117062;28;19949;-87
2022/10/23 04:43:32;;;;;;;;;;;14.00;94.00;;;;;;5117106;28;19942;-88
2022/10/23 04:45:57;;;;;;;;;;;14.10;94.00;;;;;;5116887;28;19957;-88
2022/10/23 04:48:23;;;;;;;;;;;14.20;93.80;;;;;;5114227;28;20005;-88
2022/10/23 04:50:58;;;;;;;;;;;14.10;93.60;;;;;;5096325;28;20034;-88
2022/10/23 04:53:25;;;;;;;;;;;14.00;93.50;;;;;;5096429;28;19942;-87
2022/10/23 04:55:51;;;;;;;;;;;14.00;93.50;;;;;;5096356;28;19944;-87
2022/10/23 04:58:17;;;;;;;;;;;13.90;93.70;;;;;;5097335;28;19985;-88
2022/10/23 05:00:42;;;;;;;;;;;14.00;93.90;;;;;;5098190;28;20237;-88
2022/10/23 05:03:08;;;;;;;;;;;14.00;93.90;;;;;;5116694;28;19974;-87
2022/10/23 05:05:33;;;;;;;;;;;14.00;93.80;;;;;;5116523;28;19961;-88
2022/10/23 05:07:59;;;;;;;;;;;14.10;93.90;;;;;;5116512;28;19950;-88
2022/10/23 05:10:24;;;;;;;;;;;14.10;93.80;;;;;;5097268;28;19943;-88
2022/10/23 05:12:50;;;;;;;;;;;14.10;93.80;;;;;;5096091;28;19941;-87
2022/10/23 05:15:15;;;;;;;;;;;14.10;93.60;;;;;;5096044;28;19938;-87
2022/10/23 05:17:43;;;;;;;;;;;14.10;93.40;;;;;;5095956;28;19939;-87
2022/10/23 05:20:11;;;;;;;;;;;14.00;93.00;;;;;;5112229;28;19955;-87
2022/10/23 05:22:38;;;;;;;;;;;13.90;92.90;;;;;;5115237;28;20415;-88
2022/10/23 05:25:04;;;;;;;;;;;13.90;93.20;;;;;;5116179;28;20072;-87
2022/10/23 05:27:29;;;;;;;;;;;13.90;93.20;;;;;;5116175;28;19939;-87
2022/10/23 05:29:55;;;;;;;;;;;14.00;93.20;;;;;;5115218;28;19980;-88
2022/10/23 05:32:21;;;;;;;;;;;14.00;93.20;;;;;;5116156;28;19963;-87
2022/10/23 05:34:46;;;;;;;;;;;14.10;93.20;;;;;;5116036;28;19936;-87
2022/10/23 05:37:13;;;;;;;;;;;14.10;93.20;;;;;;5116019;28;19943;-88
2022/10/23 05:39:38;;;;;;;;;;;14.10;93.20;;;;;;5104116;28;19956;-88
2022/10/23 05:42:04;;;;;;;;;;;14.10;93.20;;;;;;5095543;28;19945;-88
2022/10/23 05:44:29;;;;;;;;;;;14.10;93.10;;;;;;5095434;28;20447;-88
2022/10/23 05:46:55;;;;;;;;;;;14.10;92.70;;;;;;5095346;28;20013;-88
2022/10/23 05:49:23;;;;;;;;;;;14.00;92.70;;;;;;5085857;28;20085;-88
2022/10/23 05:51:48;;;;;;;;;;;14.00;92.90;;;;;;5113170;28;19965;-88
2022/10/23 05:54:14;;;;;;;;;;;14.00;92.90;;;;;;5115944;28;19935;-88
2022/10/23 05:56:40;;;;;;;;;;;14.00;92.80;;;;;;5115604;28;19941;-88
2022/10/23 05:59:06;;;;;;;;;;;14.00;92.80;;;;;;5115844;28;19941;-87
2022/10/23 06:01:32;;;;;;;;;;;14.10;92.90;;;;;;5114822;28;19948;-87
2022/10/23 06:03:58;;;;;;;;;;;14.20;92.70;;;;;;5115469;28;19961;-88
2022/10/23 06:06:23;;;;;;;;;;;14.10;92.70;;;;;;5115373;28;19954;-87
2022/10/23 06:08:49;;;;;;;;;;;14.20;92.60;;;;;;5115624;28;19954;-87
2022/10/23 06:11:14;;;;;;;;;;;14.20;92.40;;;;;;5103115;28;20319;-87
2022/10/23 06:13:44;;;;;;;;;;;14.20;92.30;;;;;;5094878;28;19954;-87
2022/10/23 06:16:09;;;;;;;;;;;14.10;92.40;;;;;;5094859;28;19944;-88
2022/10/23 06:18:35;;;;;;;;;;;14.00;92.60;;;;;;5094883;28;20067;-87
2022/10/23 06:21:00;;;;;;;;;;;14.00;92.70;;;;;;5104074;28;19955;-87
2022/10/23 06:23:26;;;;;;;;;;;13.90;92.80;;;;;;5115347;28;19943;-88
2022/10/23 06:25:53;;;;;;;;;;;13.90;92.70;;;;;;5115003;28;19955;-87
2022/10/23 06:28:19;;;;;;;;;;;13.90;92.90;;;;;;5113941;22;20452;-88
2022/10/23 06:30:44;;;;;;;;;;;13.90;93.20;;;;;;5074592;28;19946;-88
2022/10/23 06:33:10;;;;;;;;;;;13.90;93.40;;;;;;5074094;28;20042;-87
2022/10/23 06:35:36;;;;;;;;;;;14.00;93.60;;;;;;5055553;28;21485;-87
2022/10/23 06:38:02;;;;;;;;;;;14.10;93.70;;;;;;5074142;28;20002;-88
2022/10/23 06:40:28;;;;;;;;;;;14.20;93.80;;;;;;5078328;28;19979;-88
2022/10/23 06:42:54;;;;;;;;;;;14.20;93.90;;;;;;5094340;28;20026;-88
2022/10/23 06:45:20;;;;;;;;;;;14.20;94.00;;;;;;5094193;28;19963;-87
2022/10/23 06:47:48;;;;;;;;;;;14.30;94.10;;;;;;5094264;28;20398;-87
2022/10/23 06:50:13;;;;;;;;;;;14.40;94.10;;;;;;5093505;28;19996;-87
2022/10/23 06:52:39;;;;;;;;;;;14.50;93.80;;;;;;5093944;28;19960;-87
2022/10/23 06:55:04;;;;;;;;;;;14.60;93.40;;;;;;5094129;28;19944;-87
2022/10/23 06:57:30;;;;;;;;;;;14.60;93.40;;;;;;5094052;28;19995;-88
2022/10/23 06:59:55;;;;;;;;;;;14.60;93.50;;;;;;5093869;28;19940;-87
2022/10/23 07:02:21;;;;;;;;;;;14.60;93.50;;;;;;5093426;28;20163;-87
2022/10/23 07:04:46;;;;;;;;;;;14.60;93.70;;;;;;5094195;28;19936;-87
2022/10/23 07:07:12;;;;;;;;;;;14.60;94.00;;;;;;5093763;28;20015;-87
2022/10/23 07:09:38;;;;;;;;;;;14.70;94.00;;;;;;5093815;28;19949;-88
2022/10/23 07:12:03;;;;;;;;;;;14.80;93.90;;;;;;5093383;28;20420;-87
2022/10/23 07:14:31;;;;;;;;;;;14.80;93.90;;;;;;5093713;28;20100;-87
2022/10/23 07:16:56;;;;;;;;;;;14.90;93.70;;;;;;5093816;28;19940;-88
2022/10/23 07:19:22;;;;;;;;;;;14.90;93.70;;;;;;5093707;28;19945;-87
2022/10/23 07:21:47;;;;;;;;;;;15.10;93.40;;;;;;5093354;28;19946;-87
2022/10/23 07:24:13;;;;;;;;;;;15.10;92.90;;;;;;5093652;28;19943;-87
2022/10/23 07:26:40;;;;;;;;;;;15.10;92.70;;;;;;5093509;28;19961;-87
2022/10/23 07:29:06;;;;;;;;;;;15.20;92.50;;;;;;5093395;28;19952;-87
2022/10/23 07:31:32;;;;;;;;;;;15.30;92.00;;;;;;5081036;28;19948;-87
2022/10/23 07:33:57;;;;;;;;;;;15.30;92.00;;;;;;5073284;28;19935;-87
2022/10/23 07:36:23;;;;;;;;;;;15.50;91.90;;;;;;5073275;28;19981;-87
2022/10/23 07:38:49;;;;;;;;;;;15.60;91.80;;;;;;5073180;28;19942;-87
2022/10/23 07:41:15;;;;;;;;;;;15.70;91.70;;;;;;5082814;28;19946;-88
2022/10/23 07:43:40;;;;;;;;;;;15.80;91.50;;;;;;5079762;28;19984;-88
2022/10/23 07:46:08;;;;;;;;;;;15.90;91.30;;;;;;5072537;28;19970;-88
2022/10/23 07:48:34;;;;;;;;;;;16.00;91.10;;;;;;5073367;28;20000;-88
2022/10/23 07:51:02;;;;;;;;;;;16.10;90.90;;;;;;5080211;28;19971;-88
2022/10/23 07:53:28;;;;;;;;;;;16.20;90.50;;;;;;5092977;28;20450;-88
2022/10/23 07:55:55;;;;;;;;;;;16.30;90.10;;;;;;5093233;28;19942;-87
2022/10/23 07:58:20;;;;;;;;;;;16.40;89.50;;;;;;5093199;28;19941;-87
2022/10/23 08:00:55;;;;;;;;;;;16.50;89.60;;;;;;5087644;28;19942;-87
2022/10/23 08:03:20;;;;;;;;;;;16.50;89.20;;;;;;5072893;28;20035;-88
2022/10/23 08:05:46;;;;;;;;;;;16.70;89.00;;;;;;5072900;28;20145;-88
2022/10/23 08:08:11;;;;;;;;;;;16.70;89.20;;;;;;5072848;28;20155;-88
2022/10/23 08:10:37;;;;;;;;;;;16.80;89.10;;;;;;5072855;28;20001;-87
2022/10/23 08:13:03;;;;;;;;;;;16.80;89.30;;;;;;5072872;28;19949;-88
2022/10/23 08:15:28;;;;;;;;;;;16.90;89.30;;;;;;5072825;28;19941;-88
2022/10/23 08:17:54;;;;;;;;;;;17.10;88.60;;;;;;5072808;28;19950;-88
2022/10/23 08:20:19;;;;;;;;;;;17.20;88.30;;;;;;5073758;28;20396;-88
2022/10/23 08:22:45;;;;;;;;;;;17.30;88.40;;;;;;5092987;28;19942;-88
2022/10/23 08:25:10;;;;;;;;;;;17.40;88.40;;;;;;5092937;28;20419;-88
2022/10/23 08:27:36;;;;;;;;;;;17.50;88.40;;;;;;5092937;28;20401;-88
2022/10/23 08:30:02;;;;;;;;;;;17.70;88.20;;;;;;5092785;28;19970;-88
2022/10/23 08:32:29;;;;;;;;;;;17.80;87.60;;;;;;5073994;28;19951;-88
2022/10/23 08:34:54;;;;;;;;;;;18.00;86.60;;;;;;5072881;28;20034;-88
2022/10/23 08:37:20;;;;;;;;;;;18.10;86.50;;;;;;5054630;28;19997;-88
2022/10/23 08:39:45;;;;;;;;;;;18.30;86.50;;;;;;5072698;28;19941;-87
2022/10/23 08:42:18;;;;;;;;;;;18.30;86.20;;;;;;5088904;28;19948;-88
2022/10/23 08:45:06;;;;;;;;;;;18.50;85.60;;;;;;5092732;28;19973;-88
2022/10/23 08:47:38;;;;;;;;;;;18.60;84.50;;;;;;5081669;28;19968;-88
2022/10/23 08:50:13;;;;;;;;;;;18.80;83.30;;;;;;5092726;28;19985;-88
2022/10/23 08:52:41;;;;;;;;;;;18.90;82.10;;;;;;5072400;28;19962;-88
2022/10/23 08:55:28;;;;;;;;;;;19.20;81.00;;;;;;5072446;28;20355;-88
2022/10/23 08:58:14;;;;;;;;;;;19.30;80.70;;;;;;5075998;28;20031;-88
2022/10/23 09:00:40;;;;;;;;;;;19.60;81.80;;;;;;5076038;28;19954;-87
2022/10/23 09:03:05;;;;;;;;;;;19.70;80.60;;;;;;5075897;28;20024;-88
2022/10/23 09:05:38;;;;;;;;;;;19.80;80.10;;;;;;5075855;28;20070;-88
2022/10/23 09:08:23;;;;;;;;;;;19.90;79.60;;;;;;5075964;28;19942;-88
2022/10/23 09:11:00;;;;;;;;;;;20.00;78.70;;;;;;5076414;28;19945;-88
2022/10/23 09:13:42;;;;;;;;;;;20.10;78.00;;;;;;5075867;28;20410;-88
2022/10/23 09:16:23;;;;;;;;;;;20.30;77.90;;;;;;5075823;28;19936;-88
2022/10/23 09:18:49;;;;;;;;;;;20.50;75.40;;;;;;5057795;28;19954;-88
2022/10/23 09:21:15;;;;;;;;;;;20.70;73.80;;;;;;5075935;28;20365;-88
2022/10/23 09:23:40;;;;;;;;;;;20.80;72.30;;;;;;5075579;28;19944;-88
2022/10/23 09:26:17;;;;;;;;;;;20.90;72.00;;;;;;5075587;28;19959;-88
2022/10/23 09:28:47;;;;;;;;;;;20.90;72.50;;;;;;5075652;28;19987;-88
2022/10/23 09:31:13;;;;;;;;;;;20.90;72.00;;;;;;5081972;28;19956;-88
2022/10/23 09:33:39;;;;;;;;;;;20.90;71.20;;;;;;5095677;28;19940;-88
2022/10/23 09:36:12;;;;;;;;;;;21.00;71.50;;;;;;5095670;28;19989;-88
2022/10/23 09:38:46;;;;;;;;;;;21.10;71.50;;;;;;5095626;28;20000;-88
2022/10/23 09:41:20;;;;;;;;;;;21.10;70.60;;;;;;5089139;28;19951;-88
2022/10/23 09:43:46;;;;;;;;;;;21.10;70.00;;;;;;5075271;28;20430;-88
2022/10/23 09:46:12;;;;;;;;;;;21.20;68.70;;;;;;5075139;28;19960;-88
2022/10/23 09:48:38;;;;;;;;;;;21.20;69.40;;;;;;5075268;28;20027;-88
2022/10/23 09:51:13;;;;;;;;;;;21.30;69.70;;;;;;5079741;28;19956;-88
2022/10/23 09:53:49;;;;;;;;;;;21.30;69.00;;;;;;5095311;28;19937;-88
2022/10/23 09:56:23;;;;;;;;;;;21.40;69.50;;;;;;5095341;28;19937;-88
2022/10/23 09:58:57;;;;;;;;;;;21.40;68.50;;;;;;5095264;28;19982;-88
2022/10/23 10:01:31;;;;;;;;;;;21.50;68.20;;;;;;5087644;28;20013;-88
2022/10/23 10:03:57;;;;;;;;;;;21.50;68.80;;;;;;5074893;28;19939;-88
2022/10/23 10:06:27;;;;;;;;;;;21.50;68.60;;;;;;5074731;28;19964;-88
2022/10/23 10:08:54;;;;;;;;;;;21.50;69.10;;;;;;5074276;28;20447;-88
2022/10/23 10:11:22;;;;;;;;;;;21.60;69.30;;;;;;5074905;28;19947;-88
2022/10/23 10:13:48;;;;;;;;;;;21.70;69.40;;;;;;5075390;28;19941;-88
2022/10/23 10:16:19;;;;;;;;;;;21.80;70.30;;;;;;5074650;28;19961;-88
2022/10/23 10:19:03;;;;;;;;;;;21.90;70.20;;;;;;5074629;28;19941;-88
2022/10/23 10:21:48;;;;;;;;;;;22.00;69.20;;;;;;5082289;28;19955;-88
2022/10/23 10:24:26;;;;;;;;;;;22.10;69.90;;;;;;5094380;28;19979;-88
2022/10/23 10:27:10;;;;;;;;;;;22.30;67.20;;;;;;5094578;28;20050;-88
2022/10/23 10:29:42;;;;;;;;;;;22.30;67.40;;;;;;5094398;28;19975;-88
2022/10/23 10:32:19;;;;;;;;;;;22.40;67.20;;;;;;5080953;28;20461;-88
2022/10/23 10:35:08;;;;;;;;;;;22.40;67.10;;;;;;5074269;28;19943;-88
2022/10/23 10:37:42;;;;;;;;;;;22.40;67.20;;;;;;5074865;28;19937;-88
2022/10/23 10:40:07;;;;;;;;;;;22.30;67.10;;;;;;5074151;28;19936;-88
2022/10/23 10:42:44;;;;;;;;;;;22.00;68.80;;;;;;5090418;28;20035;-88
2022/10/23 10:45:18;;;;;;;;;;;22.10;68.50;;;;;;5094339;28;19988;-88
2022/10/23 10:48:02;;;;;;;;;;;22.30;68.50;;;;;;5094256;28;19946;-88
2022/10/23 10:50:28;;;;;;;;;;;22.30;68.70;;;;;;5094205;28;19943;-87
2022/10/23 10:53:16;;;;;;;;;;;22.50;67.80;;;;;;5074724;28;19987;-88
2022/10/23 10:55:43;;;;;;;;;;;22.70;67.00;;;;;;5073875;28;20051;-88
2022/10/23 10:58:08;;;;;;;;;;;22.80;66.20;;;;;;5073875;28;19944;-88
2022/10/23 11:00:34;;;;;;;;;;;22.90;65.70;;;;;;5073813;28;20038;-88
2022/10/23 11:03:03;;;;;;;;;;;23.00;65.60;;;;;;5093155;28;20046;-88
2022/10/23 11:05:33;;;;;;;;;;;23.10;65.20;;;;;;5093905;28;20404;-88
2022/10/23 11:08:02;;;;;;;;;;;23.20;65.00;;;;;;5093995;28;19943;-88
2022/10/23 11:10:28;;;;;;;;;;;23.40;64.50;;;;;;5093898;28;20323;-88
2022/10/23 11:12:54;;;;;;;;;;;23.70;65.30;;;;;;5074992;28;19947;-88
2022/10/23 11:15:22;;;;;;;;;;;23.80;63.00;;;;;;5073548;28;20450;-88
2022/10/23 11:17:51;;;;;;;;;;;23.90;63.30;;;;;;5073579;28;19949;-88
2022/10/23 11:20:34;;;;;;;;;;;23.90;64.90;;;;;;5072749;28;19974;-88
2022/10/23 11:23:02;;;;;;;;;;;24.00;66.20;;;;;;5072954;28;20028;-88
2022/10/23 11:25:46;;;;;;;;;;;24.00;65.10;;;;;;5073330;28;20035;-88
2022/10/23 11:28:36;;;;;;;;;;;24.10;65.90;;;;;;5073208;28;20034;-88
2022/10/23 11:31:16;;;;;;;;;;;24.10;65.50;;;;;;5075454;28;19947;-88
2022/10/23 11:33:44;;;;;;;;;;;24.30;64.40;;;;;;5093478;28;20418;-88
2022/10/23 11:36:39;;;;;;;;;;;24.40;63.40;;;;;;5093452;28;19948;-89
2022/10/23 11:39:16;;;;;;;;;;;24.50;62.00;;;;;;5075492;28;20413;-88
2022/10/23 11:41:55;;;;;;;;;;;24.70;61.80;;;;;;5085459;28;19945;-89
2022/10/23 11:44:22;;;;;;;;;;;24.80;60.60;;;;;;5073119;28;19943;-88
2022/10/23 11:46:58;;;;;;;;;;;24.80;60.10;;;;;;5073133;28;19962;-88
2022/10/23 11:49:23;;;;;;;;;;;24.70;60.70;;;;;;5073153;28;19945;-89
2022/10/23 11:51:58;;;;;;;;;;;24.80;62.40;;;;;;5081301;28;19968;-88
2022/10/23 11:54:26;;;;;;;;;;;25.20;62.00;;;;;;5093267;28;19946;-88
2022/10/23 11:56:53;;;;;;;;;;;26.00;58.40;;;;;;5093222;28;19940;-89
2022/10/23 11:59:22;;;;;;;;;;;26.70;55.80;;;;;;5093222;28;19990;-89
2022/10/23 12:01:48;;;;;;;;;;;27.60;53.40;;;;;;5084887;28;20032;-89
2022/10/23 12:04:14;;;;;;;;;;;28.10;50.80;;;;;;5072990;28;19948;-89
2022/10/23 12:06:54;;;;;;;;;;;28.00;52.00;;;;;;5072891;28;19961;-88
2022/10/23 12:09:22;;;;;;;;;;;28.20;52.00;;;;;;5054952;28;19949;-88
2022/10/23 12:12:00;;;;;;;;;;;28.20;51.60;;;;;;5081166;28;19967;-88
2022/10/23 12:14:25;;;;;;;;;;;27.80;51.00;;;;;;5093082;28;19940;-89
2022/10/23 12:16:51;;;;;;;;;;;27.50;52.00;;;;;;5093132;28;19938;-89
2022/10/23 12:19:19;;;;;;;;;;;27.70;51.10;;;;;;5093092;28;19942;-88
2022/10/23 12:21:45;;;;;;;;;;;27.70;53.20;;;;;;5085265;28;19950;-88
2022/10/23 12:24:11;;;;;;;;;;;28.00;53.00;;;;;;5054851;28;20026;-88
2022/10/23 12:26:36;;;;;;;;;;;28.00;51.90;;;;;;5072760;28;20016;-88
2022/10/23 12:29:20;;;;;;;;;;;28.60;49.10;;;;;;5072502;28;19975;-89
2022/10/23 12:32:04;;;;;;;;;;;28.70;49.50;;;;;;5090336;28;19948;-89
2022/10/23 12:34:36;;;;;;;;;;;28.80;49.00;;;;;;5078693;28;20460;-89
2022/10/23 12:37:02;;;;;;;;;;;29.10;47.50;;;;;;5097134;28;19973;-89
2022/10/23 12:39:32;;;;;;;;;;;29.60;46.40;;;;;;5096157;28;19944;-88
2022/10/23 12:41:58;;;;;;;;;;;30.00;45.70;;;;;;5096721;28;19951;-89
2022/10/23 12:44:24;;;;;;;;;;;29.80;46.00;;;;;;5096940;28;19942;-89
2022/10/23 12:46:53;;;;;;;;;;;30.00;44.70;;;;;;5096654;28;20348;-89
2022/10/23 12:49:20;;;;;;;;;;;29.90;45.20;;;;;;5085275;28;19979;-88
2022/10/23 12:51:53;;;;;;;;;;;28.30;49.20;;;;;;5076030;28;19969;-88
2022/10/23 12:54:19;;;;;;;;;;;27.80;51.20;;;;;;5076278;28;19940;-88
2022/10/23 12:56:45;;;;;;;;;;;27.60;52.50;;;;;;5076272;28;19947;-89
2022/10/23 12:59:19;;;;;;;;;;;27.30;51.50;;;;;;5076367;28;19948;-88
2022/10/23 13:01:45;;;;;;;;;;;27.20;52.00;;;;;;5076082;28;19951;-88
2022/10/23 13:04:10;;;;;;;;;;;26.80;52.40;;;;;;5076121;28;20040;-88
2022/10/23 13:06:37;;;;;;;;;;;27.00;51.90;;;;;;5075954;28;20004;-88
2022/10/23 13:09:03;;;;;;;;;;;27.50;50.60;;;;;;5083988;28;19940;-89
2022/10/23 13:11:29;;;;;;;;;;;27.80;50.50;;;;;;5096104;28;19949;-88
2022/10/23 13:13:55;;;;;;;;;;;28.20;50.30;;;;;;5096255;28;19936;-89
2022/10/23 13:16:22;;;;;;;;;;;29.00;47.40;;;;;;5096366;28;20416;-89
2022/10/23 13:18:48;;;;;;;;;;;29.50;46.10;;;;;;5089886;28;20039;-88
2022/10/23 13:21:19;;;;;;;;;;;29.50;46.40;;;;;;5075739;28;20034;-89
2022/10/23 13:23:45;;;;;;;;;;;30.20;45.30;;;;;;5075745;28;19950;-89
2022/10/23 13:26:29;;;;;;;;;;;30.50;43.80;;;;;;5075641;28;19961;-89
2022/10/23 13:28:55;;;;;;;;;;;30.90;43.30;;;;;;5082155;28;19974;-89
2022/10/23 13:31:24;;;;;;;;;;;31.00;42.90;;;;;;5095774;28;20391;-89
2022/10/23 13:33:58;;;;;;;;;;;30.70;43.90;;;;;;5096043;28;19948;-89
2022/10/23 13:36:26;;;;;;;;;;;30.20;44.10;;;;;;5077525;28;19943;-88
2022/10/23 13:38:59;;;;;;;;;;;29.70;45.10;;;;;;5089371;28;19939;-88
2022/10/23 13:41:26;;;;;;;;;;;29.20;46.60;;;;;;5075408;28;19937;-88
2022/10/23 13:43:51;;;;;;;;;;;28.80;48.80;;;;;;5074447;28;19938;-88
2022/10/23 13:46:18;;;;;;;;;;;28.50;48.90;;;;;;5057267;28;20343;-88
2022/10/23 13:48:44;;;;;;;;;;;28.30;49.40;;;;;;5079547;28;19954;-88
2022/10/23 13:51:20;;;;;;;;;;;28.20;49.70;;;;;;5068121;28;19958;-88
2022/10/23 13:53:46;;;;;;;;;;;28.80;49.00;;;;;;5095096;28;19951;-89
2022/10/23 13:56:12;;;;;;;;;;;29.20;47.40;;;;;;5077167;28;19946;-89
2022/10/23 13:58:38;;;;;;;;;;;29.10;47.50;;;;;;5095244;28;20476;-88
2022/10/23 14:01:04;;;;;;;;;;;29.00;47.70;;;;;;5084250;28;19944;-89
2022/10/23 14:03:29;;;;;;;;;;;28.80;48.10;;;;;;5075001;28;19944;-89
2022/10/23 14:05:55;;;;;;;;;;;28.50;48.50;;;;;;5074850;28;19962;-88
2022/10/23 14:08:20;;;;;;;;;;;28.00;49.90;;;;;;5074788;28;19941;-88
2022/10/23 14:10:46;;;;;;;;;;;27.20;52.20;;;;;;5074775;28;20384;-88
2022/10/23 14:13:11;;;;;;;;;;;26.40;54.50;;;;;;5074687;28;19945;-88
2022/10/23 14:15:37;;;;;;;;;;;25.90;56.80;;;;;;5074654;28;20032;-88
2022/10/23 14:18:02;;;;;;;;;;;25.50;59.20;;;;;;5074625;28;19938;-88
2022/10/23 14:20:28;;;;;;;;;;;25.20;59.80;;;;;;5074568;28;20023;-88
2022/10/23 14:22:54;;;;;;;;;;;25.00;60.40;;;;;;5080435;28;19937;-88
2022/10/23 14:25:20;;;;;;;;;;;24.70;62.00;;;;;;5095046;28;20365;-88